createdAt,value
2017-12-16T00:00:28.048Z,27.27
2017-12-16T00:02:55.573Z,21.17
2017-12-16T00:05:23.024Z,25.92
2017-12-16T00:07:50.484Z,22.00
2017-12-16T00:10:17.954Z,20.25
2017-12-16T00:12:45.413Z,22.55
2017-12-16T00:15:12.871Z,29.08
2017-12-16T00:17:40.348Z,30.77
2017-12-16T00:20:07.813Z,28.83
2017-12-16T00:22:35.274Z,29.65
2017-12-16T00:25:02.736Z,39.85
2017-12-16T00:27:30.180Z,33.08
2017-12-16T00:29:57.634Z,28.55
2017-12-16T00:32:25.110Z,25.83
2017-12-16T00:34:52.576Z,34.78
2017-12-16T00:37:20.045Z,50.17
2017-12-16T00:39:47.507Z,34.30
2017-12-16T00:42:14.957Z,30.12
2017-12-16T00:44:42.430Z,32.10
2017-12-16T00:47:09.900Z,26.40
2017-12-16T00:49:37.345Z,32.65
2017-12-16T00:52:04.812Z,24.48
2017-12-16T00:54:32.273Z,25.55
2017-12-16T00:56:59.730Z,28.40
2017-12-16T00:59:27.207Z,25.40
2017-12-16T01:01:54.698Z,25.45
2017-12-16T01:04:22.158Z,26.92
2017-12-16T01:06:49.624Z,24.50
2017-12-16T01:09:17.081Z,32.08
2017-12-16T01:11:44.533Z,28.25
2017-12-16T01:14:12.006Z,29.42
2017-12-16T01:16:39.472Z,31.50
2017-12-16T01:19:06.929Z,28.87
2017-12-16T01:21:34.401Z,32.30
2017-12-16T01:24:01.857Z,53.28
2017-12-16T01:26:29.304Z,37.55
2017-12-16T01:28:56.772Z,39.85
2017-12-16T01:31:24.233Z,38.15
2017-12-16T01:34:03.397Z,33.58
2017-12-16T01:50:02.483Z,43.92
2017-12-16T01:52:29.996Z,36.75
2017-12-16T01:54:57.453Z,40.03
2017-12-16T01:57:24.933Z,41.55
2017-12-16T01:59:52.385Z,37.40
2017-12-16T02:02:19.849Z,37.05
2017-12-16T02:04:47.317Z,32.47
2017-12-16T02:07:14.772Z,40.97
2017-12-16T02:09:42.245Z,40.70
2017-12-16T02:12:09.696Z,42.05
2017-12-16T02:14:37.140Z,32.75
2017-12-16T02:17:04.608Z,28.90
2017-12-16T02:19:32.110Z,39.15
2017-12-16T02:21:59.561Z,29.80
2017-12-16T02:24:27.025Z,32.75
2017-12-16T02:26:54.484Z,37.85
2017-12-16T02:29:21.953Z,27.08
2017-12-16T02:31:49.424Z,30.42
2017-12-16T02:34:16.880Z,24.65
2017-12-16T02:36:44.351Z,27.02
2017-12-16T02:39:11.822Z,34.80
2017-12-16T02:41:39.276Z,20.70
2017-12-16T02:44:06.737Z,27.90
2017-12-16T02:46:34.192Z,25.55
2017-12-16T02:49:01.693Z,19.65
2017-12-16T02:51:29.176Z,24.65
2017-12-16T02:53:56.630Z,23.92
2017-12-16T02:56:24.110Z,36.70
2017-12-16T02:58:51.565Z,28.30
2017-12-16T03:01:19.026Z,23.87
2017-12-16T03:03:46.525Z,18.45
2017-12-16T03:06:13.969Z,17.40
2017-12-16T03:08:41.417Z,16.75
2017-12-16T03:11:08.881Z,19.90
2017-12-16T03:13:36.333Z,17.20
2017-12-16T03:16:03.781Z,14.90
2017-12-16T03:18:31.258Z,14.43
2017-12-16T03:20:58.709Z,13.15
2017-12-16T03:23:26.161Z,14.38
2017-12-16T03:25:53.620Z,17.87
2017-12-16T03:28:21.068Z,16.15
2017-12-16T03:30:48.526Z,16.95
2017-12-16T03:33:15.994Z,16.80
2017-12-16T03:35:43.444Z,23.48
2017-12-16T03:38:10.901Z,17.92
2017-12-16T03:40:38.376Z,13.43
2017-12-16T03:43:05.843Z,17.85
2017-12-16T03:45:33.292Z,20.17
2017-12-16T03:48:00.756Z,17.52
2017-12-16T03:50:28.210Z,17.25
2017-12-16T03:52:55.667Z,15.25
2017-12-16T03:55:23.136Z,14.75
2017-12-16T03:57:50.593Z,18.92
2017-12-16T04:00:18.053Z,16.62
2017-12-16T04:02:45.538Z,27.67
2017-12-16T04:05:12.988Z,28.92
2017-12-16T04:07:40.448Z,22.77
2017-12-16T04:10:07.925Z,22.23
2017-12-16T04:12:35.381Z,25.92
2017-12-16T04:15:02.832Z,28.17
2017-12-16T04:17:31.137Z,26.55
2017-12-16T04:19:58.621Z,31.70
2017-12-16T04:22:26.081Z,29.12
2017-12-16T04:24:53.559Z,29.90
2017-12-16T04:27:21.021Z,30.80
2017-12-16T04:29:48.474Z,35.80
2017-12-16T04:32:15.948Z,44.53
2017-12-16T04:34:43.405Z,38.17
2017-12-16T04:37:10.874Z,28.80
2017-12-16T04:39:38.349Z,36.53
2017-12-16T04:42:05.814Z,33.70
2017-12-16T04:44:33.268Z,24.67
2017-12-16T04:47:00.790Z,21.20
2017-12-16T04:49:28.238Z,32.97
2017-12-16T04:51:55.696Z,39.05
2017-12-16T04:54:23.162Z,20.27
2017-12-16T04:56:50.627Z,24.80
2017-12-16T04:59:18.088Z,21.05
2017-12-16T05:01:45.553Z,29.23
2017-12-16T05:04:13.013Z,15.38
2017-12-16T05:06:40.469Z,19.85
2017-12-16T05:09:07.953Z,19.45
2017-12-16T05:11:35.408Z,25.35
2017-12-16T05:14:02.861Z,30.42
2017-12-16T05:16:30.333Z,17.85
2017-12-16T05:18:57.788Z,16.83
2017-12-16T05:21:25.236Z,22.33
2017-12-16T05:23:52.708Z,20.88
2017-12-16T05:26:20.170Z,23.20
2017-12-16T05:28:47.633Z,25.65
2017-12-16T05:31:15.113Z,19.23
2017-12-16T05:33:42.575Z,21.48
2017-12-16T05:36:10.025Z,27.10
2017-12-16T05:38:37.493Z,19.12
2017-12-16T05:41:04.962Z,22.27
2017-12-16T05:43:32.424Z,17.40
2017-12-16T05:45:59.901Z,24.20
2017-12-16T05:48:27.352Z,23.35
2017-12-16T05:50:54.813Z,30.23
2017-12-16T05:53:22.284Z,25.55
2017-12-16T05:55:49.740Z,19.00
2017-12-16T05:58:17.196Z,18.20
2017-12-16T06:00:44.679Z,24.98
2017-12-16T06:03:12.132Z,23.15
2017-12-16T06:05:39.589Z,25.83
2017-12-16T06:08:07.060Z,23.23
2017-12-16T06:10:34.521Z,25.23
2017-12-16T06:13:01.982Z,18.65
2017-12-16T06:15:29.457Z,24.45
2017-12-16T06:17:56.912Z,17.67
2017-12-16T06:20:24.356Z,15.38
2017-12-16T06:22:51.824Z,14.65
2017-12-16T06:25:19.327Z,19.58
2017-12-16T06:27:46.748Z,19.05
2017-12-16T06:30:14.221Z,18.23
2017-12-16T06:32:41.677Z,16.75
2017-12-16T06:35:09.136Z,22.40
2017-12-16T06:37:36.609Z,21.27
2017-12-16T06:40:04.069Z,23.38
2017-12-16T06:42:31.521Z,22.20
2017-12-16T06:44:58.988Z,23.95
2017-12-16T06:47:26.436Z,27.73
2017-12-16T06:49:53.897Z,24.02
2017-12-16T06:52:21.373Z,22.90
2017-12-16T06:54:48.828Z,19.45
2017-12-16T06:57:16.289Z,24.58
2017-12-16T06:59:43.766Z,25.50
2017-12-16T07:02:11.217Z,20.95
2017-12-16T07:04:38.673Z,30.10
2017-12-16T07:07:06.140Z,26.05
2017-12-16T07:09:33.597Z,28.10
2017-12-16T07:12:01.057Z,32.13
2017-12-16T07:14:28.524Z,24.98
2017-12-16T07:16:55.976Z,25.80
2017-12-16T07:19:23.425Z,22.15
2017-12-16T07:21:50.888Z,34.45
2017-12-16T07:24:18.345Z,28.60
2017-12-16T07:26:45.797Z,26.35
2017-12-16T07:29:13.260Z,26.08
2017-12-16T07:31:40.714Z,28.08
2017-12-16T07:34:08.196Z,28.05
2017-12-16T07:36:35.664Z,30.12
2017-12-16T07:39:03.121Z,28.70
2017-12-16T07:41:30.578Z,24.75
2017-12-16T07:43:58.050Z,30.83
2017-12-16T07:46:25.505Z,29.25
2017-12-16T07:48:52.953Z,29.17
2017-12-16T07:51:20.425Z,37.20
2017-12-16T07:53:47.880Z,37.83
2017-12-16T07:56:15.334Z,37.70
2017-12-16T07:58:42.797Z,45.08
2017-12-16T08:01:10.245Z,40.03
2017-12-16T08:03:37.693Z,37.60
2017-12-16T08:06:05.161Z,44.05
2017-12-16T08:08:32.617Z,46.63
2017-12-16T08:11:00.073Z,38.08
2017-12-16T08:13:27.539Z,37.30
2017-12-16T08:15:54.989Z,36.20
2017-12-16T08:18:22.436Z,34.17
2017-12-16T08:20:49.909Z,26.95
2017-12-16T08:23:17.361Z,30.80
2017-12-16T08:25:44.813Z,35.20
2017-12-16T08:28:12.271Z,32.67
2017-12-16T08:30:39.719Z,28.05
2017-12-16T08:33:07.175Z,33.63
2017-12-16T08:35:34.641Z,29.85
2017-12-16T08:38:02.097Z,29.08
2017-12-16T08:40:29.558Z,40.55
2017-12-16T08:42:57.021Z,27.95
2017-12-16T08:45:24.478Z,29.50
2017-12-16T08:47:51.932Z,34.08
2017-12-16T08:50:19.396Z,29.98
2017-12-16T08:52:46.850Z,29.40
2017-12-16T08:55:14.309Z,32.08
2017-12-16T08:57:41.778Z,31.33
2017-12-16T09:00:09.229Z,30.90
2017-12-16T09:02:36.685Z,30.17
2017-12-16T09:05:04.160Z,28.15
2017-12-16T09:07:31.617Z,29.95
2017-12-16T09:09:59.068Z,30.85
2017-12-16T09:12:26.533Z,27.83
2017-12-16T09:14:53.981Z,40.20
2017-12-16T09:17:21.434Z,31.52
2017-12-16T09:19:48.906Z,28.90
2017-12-16T09:22:16.352Z,29.73
2017-12-16T09:24:43.805Z,38.53
2017-12-16T09:27:11.278Z,32.83
2017-12-16T09:29:38.732Z,30.88
2017-12-16T09:32:06.180Z,37.42
2017-12-16T09:34:33.681Z,34.13
2017-12-16T09:37:01.117Z,33.00
2017-12-16T09:39:28.569Z,31.95
2017-12-16T09:41:56.036Z,34.92
2017-12-16T09:44:23.493Z,33.05
2017-12-16T09:46:50.950Z,48.08
2017-12-16T09:49:18.412Z,41.65
2017-12-16T09:51:45.860Z,40.10
2017-12-16T09:54:13.312Z,44.60
2017-12-16T09:56:40.773Z,45.83
2017-12-16T09:59:08.228Z,44.95
2017-12-16T10:01:35.684Z,47.75
2017-12-16T10:04:03.157Z,46.00
2017-12-16T10:06:30.614Z,53.60
2017-12-16T10:08:58.073Z,53.50
2017-12-16T10:11:25.541Z,57.92
2017-12-16T10:13:52.984Z,53.90
2017-12-16T10:16:20.440Z,58.92
2017-12-16T10:18:47.918Z,60.85
2017-12-16T10:21:15.373Z,60.25
2017-12-16T10:23:42.825Z,74.10
2017-12-16T10:26:10.296Z,68.30
2017-12-16T10:28:37.748Z,72.62
2017-12-16T10:31:05.204Z,77.60
2017-12-16T10:33:32.671Z,76.30
2017-12-16T10:36:00.121Z,79.93
2017-12-16T10:38:27.572Z,94.93
2017-12-16T10:40:55.040Z,81.93
2017-12-16T10:43:22.501Z,84.55
2017-12-16T10:45:49.961Z,98.03
2017-12-16T10:48:17.429Z,87.95
2017-12-16T10:50:44.881Z,86.78
2017-12-16T10:53:12.339Z,96.07
2017-12-16T10:55:39.817Z,80.82
2017-12-16T10:58:07.276Z,96.40
2017-12-16T11:00:34.736Z,104.28
2017-12-16T11:03:02.212Z,80.95
2017-12-16T11:05:29.661Z,92.35
2017-12-16T11:07:57.121Z,81.60
2017-12-16T11:10:24.591Z,69.62
2017-12-16T11:12:52.053Z,69.57
2017-12-16T11:15:19.505Z,79.85
2017-12-16T11:17:46.977Z,76.15
2017-12-16T11:20:14.428Z,78.78
2017-12-16T11:22:41.889Z,76.00
2017-12-16T11:25:09.353Z,64.72
2017-12-16T11:27:36.804Z,79.15
2017-12-16T11:30:04.266Z,78.72
2017-12-16T11:32:31.749Z,85.97
2017-12-16T11:34:59.209Z,78.62
2017-12-16T11:37:26.674Z,79.28
2017-12-16T11:39:54.227Z,75.80
2017-12-16T11:42:21.742Z,82.40
2017-12-16T11:44:49.148Z,80.72
2017-12-16T11:47:16.613Z,73.32
2017-12-16T11:49:44.097Z,85.32
2017-12-16T11:52:11.566Z,72.03
2017-12-16T11:54:39.042Z,73.30
2017-12-16T11:57:06.496Z,85.85
2017-12-16T11:59:33.975Z,71.20
2017-12-16T12:02:01.432Z,82.40
2017-12-16T12:04:28.889Z,69.70
2017-12-16T12:06:56.366Z,72.37
2017-12-16T12:09:23.825Z,76.32
2017-12-16T12:11:51.287Z,72.37
2017-12-16T12:14:18.765Z,78.95
2017-12-16T12:16:46.216Z,58.05
2017-12-16T12:19:13.669Z,61.35
2017-12-16T12:21:41.145Z,61.58
2017-12-16T12:24:08.605Z,51.97
2017-12-16T12:26:36.074Z,56.05
2017-12-16T12:29:03.559Z,53.75
2017-12-16T12:31:31.025Z,53.28
2017-12-16T12:33:58.482Z,53.20
2017-12-16T12:36:25.959Z,59.60
2017-12-16T12:38:53.421Z,57.85
2017-12-16T12:41:20.899Z,56.55
2017-12-16T12:43:48.367Z,56.50
2017-12-16T12:46:15.825Z,47.55
2017-12-16T12:48:43.286Z,51.20
2017-12-16T12:51:10.757Z,52.08
2017-12-16T12:53:38.222Z,48.08
2017-12-16T12:56:05.676Z,44.70
2017-12-16T12:58:33.149Z,43.15
2017-12-16T13:01:00.610Z,42.75
2017-12-16T13:03:28.068Z,41.45
2017-12-16T13:05:55.536Z,48.30
2017-12-16T13:08:22.989Z,45.03
2017-12-16T13:10:50.445Z,49.17
2017-12-16T13:13:17.926Z,47.72
2017-12-16T13:15:45.385Z,43.45
2017-12-16T13:18:12.840Z,48.10
2017-12-16T13:20:40.308Z,40.38
2017-12-16T13:23:07.764Z,50.60
2017-12-16T13:25:35.222Z,49.33
2017-12-16T13:28:02.684Z,39.70
2017-12-16T13:30:30.200Z,41.85
2017-12-16T13:32:57.623Z,41.35
2017-12-16T13:35:25.093Z,40.25
2017-12-16T13:37:52.548Z,35.97
2017-12-16T13:40:20.002Z,40.22
2017-12-16T13:42:47.480Z,35.33
2017-12-16T13:45:14.936Z,39.50
2017-12-16T13:47:42.395Z,27.33
2017-12-16T13:50:09.868Z,36.20
2017-12-16T13:52:37.321Z,35.88
2017-12-16T13:55:04.777Z,34.35
2017-12-16T13:57:32.256Z,35.05
2017-12-16T13:59:59.725Z,34.63
2017-12-16T14:02:27.186Z,34.65
2017-12-16T14:04:54.654Z,38.15
2017-12-16T14:07:22.116Z,35.42
2017-12-16T14:09:49.585Z,39.50
2017-12-16T14:12:17.066Z,35.05
2017-12-16T14:14:44.521Z,36.65
2017-12-16T14:17:11.981Z,38.40
2017-12-16T14:19:39.458Z,52.10
2017-12-16T14:22:06.914Z,42.53
2017-12-16T14:24:34.369Z,36.47
2017-12-16T14:27:01.845Z,48.03
2017-12-16T14:29:29.296Z,44.53
2017-12-16T14:31:56.752Z,45.47
2017-12-16T14:34:24.221Z,49.03
2017-12-16T14:36:51.672Z,52.05
2017-12-16T14:39:19.129Z,50.53
2017-12-16T14:41:46.601Z,44.90
2017-12-16T14:44:14.073Z,46.47
2017-12-16T14:46:41.529Z,45.17
2017-12-16T14:49:09.000Z,49.83
2017-12-16T14:51:36.453Z,46.70
2017-12-16T14:54:03.911Z,46.88
2017-12-16T14:56:31.386Z,42.75
2017-12-16T14:58:58.840Z,42.88
2017-12-16T15:01:26.306Z,45.22
2017-12-16T15:03:53.774Z,44.67
2017-12-16T15:06:21.232Z,37.33
2017-12-16T15:08:48.741Z,33.63
2017-12-16T15:11:16.206Z,34.22
2017-12-16T15:13:43.665Z,40.55
2017-12-16T15:16:11.136Z,36.47
2017-12-16T15:18:38.585Z,39.30
2017-12-16T15:21:06.053Z,39.75
2017-12-16T15:23:33.525Z,36.75
2017-12-16T15:26:00.982Z,43.53
2017-12-16T15:28:28.440Z,42.20
2017-12-16T15:30:55.920Z,48.67
2017-12-16T15:33:23.377Z,38.10
2017-12-16T15:35:50.835Z,50.78
2017-12-16T15:38:18.312Z,43.67
2017-12-16T15:40:45.777Z,40.30
2017-12-16T15:43:13.245Z,42.17
2017-12-16T15:45:40.705Z,52.25
2017-12-16T15:48:08.153Z,46.83
2017-12-16T15:50:35.621Z,46.17
2017-12-16T15:53:03.081Z,47.25
2017-12-16T15:55:30.541Z,45.72
2017-12-16T15:57:58.013Z,59.97
2017-12-16T16:00:25.474Z,53.78
2017-12-16T16:02:52.936Z,55.20
2017-12-16T16:05:20.409Z,52.40
2017-12-16T16:07:47.862Z,60.95
2017-12-16T16:10:15.308Z,52.10
2017-12-16T16:12:42.777Z,59.08
2017-12-16T16:15:10.237Z,56.42
2017-12-16T16:17:37.699Z,63.05
2017-12-16T16:20:05.164Z,61.85
2017-12-16T16:22:32.621Z,64.65
2017-12-16T16:25:00.072Z,61.97
2017-12-16T16:27:27.537Z,61.28
2017-12-16T16:29:54.988Z,60.25
2017-12-16T16:32:22.432Z,63.05
2017-12-16T16:34:49.897Z,65.30
2017-12-16T16:37:17.349Z,72.15
2017-12-16T16:39:44.813Z,61.33
2017-12-16T16:42:12.281Z,67.28
2017-12-16T16:44:39.736Z,64.68
2017-12-16T16:47:07.188Z,65.20
2017-12-16T16:49:34.660Z,67.30
2017-12-16T16:52:02.147Z,71.20
2017-12-16T16:54:29.570Z,64.53
2017-12-16T16:56:57.041Z,68.18
2017-12-16T16:59:24.501Z,67.25
2017-12-16T17:01:51.958Z,65.32
2017-12-16T17:04:19.424Z,63.25
2017-12-16T17:06:46.876Z,53.97
2017-12-16T17:09:14.330Z,65.00
2017-12-16T17:11:41.792Z,65.57
2017-12-16T17:14:09.244Z,58.58
2017-12-16T17:16:36.696Z,60.15
2017-12-16T17:19:04.199Z,51.85
2017-12-16T17:21:31.665Z,60.65
2017-12-16T17:23:59.121Z,58.47
2017-12-16T17:26:26.598Z,43.75
2017-12-16T17:28:54.059Z,46.65
2017-12-16T17:31:21.516Z,45.42
2017-12-16T17:33:49.022Z,42.50
2017-12-16T17:36:16.473Z,41.40
2017-12-16T17:38:43.921Z,48.17
2017-12-16T17:41:11.398Z,51.50
2017-12-16T17:43:38.885Z,50.42
2017-12-16T17:46:06.349Z,42.58
2017-12-16T17:48:33.825Z,37.75
2017-12-16T17:51:01.292Z,40.00
2017-12-16T17:53:28.753Z,43.80
2017-12-16T17:55:56.208Z,44.40
2017-12-16T17:58:23.660Z,51.03
2017-12-16T18:00:51.125Z,51.17
2017-12-16T18:03:18.601Z,48.47
2017-12-16T18:05:46.058Z,49.47
2017-12-16T18:08:13.533Z,42.67
2017-12-16T18:10:40.991Z,41.92
2017-12-16T18:13:08.445Z,41.60
2017-12-16T18:15:35.909Z,36.42
2017-12-16T18:18:03.366Z,42.97
2017-12-16T18:20:30.816Z,35.60
2017-12-16T18:22:58.284Z,35.13
2017-12-16T18:25:25.738Z,37.45
2017-12-16T18:27:53.186Z,36.22
2017-12-16T18:30:20.649Z,35.40
2017-12-16T18:32:48.125Z,34.83
2017-12-16T18:35:15.599Z,32.25
2017-12-16T18:37:43.056Z,44.78
2017-12-16T18:40:10.509Z,35.95
2017-12-16T18:42:37.977Z,36.42
2017-12-16T18:45:05.425Z,32.97
2017-12-16T18:47:32.934Z,34.63
2017-12-16T18:50:00.401Z,37.33
2017-12-16T18:52:27.872Z,30.52
2017-12-16T18:54:55.346Z,56.95
2017-12-16T18:57:22.809Z,40.40
2017-12-16T18:59:50.269Z,34.95
2017-12-16T19:02:17.728Z,36.80
2017-12-16T19:04:45.193Z,37.88
2017-12-16T19:07:12.722Z,40.22
2017-12-16T19:09:40.181Z,53.22
2017-12-16T19:12:07.644Z,40.22
2017-12-16T19:14:35.103Z,36.25
2017-12-16T19:17:02.556Z,44.90
2017-12-16T19:19:30.029Z,41.25
2017-12-16T19:21:57.489Z,37.72
2017-12-16T19:24:24.949Z,39.15
2017-12-16T19:26:52.410Z,51.97
2017-12-16T19:29:19.881Z,62.20
2017-12-16T19:31:47.341Z,44.92
2017-12-16T19:34:14.852Z,51.13
2017-12-16T19:36:42.317Z,51.50
2017-12-16T19:39:09.785Z,54.00
2017-12-16T19:41:37.241Z,41.42
2017-12-16T19:44:04.709Z,43.78
2017-12-16T19:46:32.183Z,43.22
2017-12-16T19:48:59.654Z,47.80
2017-12-16T19:51:27.116Z,34.08
2017-12-16T19:53:54.584Z,44.60
2017-12-16T19:56:22.043Z,47.33
2017-12-16T19:58:49.492Z,38.78
2017-12-16T20:01:16.961Z,44.17
2017-12-16T20:03:44.420Z,43.50
2017-12-16T20:06:11.885Z,38.92
2017-12-16T20:08:39.353Z,43.95
2017-12-16T20:11:06.813Z,37.75
2017-12-16T20:13:34.296Z,50.90
2017-12-16T20:16:01.749Z,44.40
2017-12-16T20:18:29.210Z,40.53
2017-12-16T20:20:56.672Z,45.03
2017-12-16T20:23:24.134Z,39.78
2017-12-16T20:25:51.585Z,44.03
2017-12-16T20:28:19.072Z,49.10
2017-12-16T20:30:46.520Z,46.37
2017-12-16T20:33:13.968Z,44.75
2017-12-16T20:35:41.437Z,45.25
2017-12-16T20:38:08.888Z,39.30
2017-12-16T20:40:36.341Z,48.40
2017-12-16T20:43:03.802Z,42.17
2017-12-16T20:45:31.265Z,43.25
2017-12-16T20:47:58.716Z,38.97
2017-12-16T20:50:26.185Z,45.67
2017-12-16T20:52:53.641Z,42.62
2017-12-16T20:55:21.093Z,47.00
2017-12-16T20:57:48.552Z,35.63
2017-12-16T21:00:16.860Z,39.30
2017-12-16T21:02:44.310Z,33.47
2017-12-16T21:05:11.773Z,45.35
2017-12-16T21:07:39.245Z,47.38
2017-12-16T21:10:06.692Z,35.67
2017-12-16T21:12:34.165Z,42.03
2017-12-16T21:15:01.612Z,40.58
2017-12-16T21:17:29.064Z,45.10
2017-12-16T21:19:56.544Z,38.10
2017-12-16T21:22:24.000Z,49.38
2017-12-16T21:24:51.458Z,42.62
2017-12-16T21:27:18.941Z,42.33
2017-12-16T21:29:46.389Z,40.80
2017-12-16T21:32:13.853Z,43.33
2017-12-16T21:34:41.318Z,40.15
2017-12-16T21:37:08.815Z,40.95
2017-12-16T21:39:36.257Z,39.10
2017-12-16T21:42:03.717Z,45.47
2017-12-16T21:44:31.165Z,40.58
2017-12-16T21:46:58.628Z,41.75
2017-12-16T21:49:26.073Z,37.15
2017-12-16T21:51:53.568Z,38.38
2017-12-16T21:54:20.997Z,42.08
2017-12-16T21:56:48.449Z,38.28
2017-12-16T21:59:15.906Z,40.65
2017-12-16T22:01:43.416Z,35.47
2017-12-16T22:04:10.876Z,35.00
2017-12-16T22:06:38.337Z,34.92
2017-12-16T22:09:05.800Z,42.35
2017-12-16T22:11:33.257Z,42.97
2017-12-16T22:14:00.713Z,39.10
2017-12-16T22:16:28.185Z,37.67
2017-12-16T22:18:55.638Z,39.33
2017-12-16T22:21:23.097Z,37.25
2017-12-16T22:23:50.568Z,33.53
2017-12-16T22:26:18.026Z,30.60
2017-12-16T22:28:45.485Z,34.83
2017-12-16T22:31:12.947Z,33.22
2017-12-16T22:33:40.409Z,35.83
2017-12-16T22:36:07.877Z,31.48
2017-12-16T22:38:35.333Z,39.00
2017-12-16T22:41:02.789Z,30.80
2017-12-16T22:43:30.261Z,37.30
2017-12-16T22:45:57.708Z,27.05
2017-12-16T22:48:25.201Z,31.42
2017-12-16T22:50:52.712Z,25.77
2017-12-16T22:53:20.165Z,31.87
2017-12-16T22:55:47.617Z,28.67
2017-12-16T22:58:15.141Z,26.17
2017-12-16T23:00:44.477Z,27.27
2017-12-16T23:03:11.932Z,29.48
2017-12-16T23:05:39.381Z,29.00
2017-12-16T23:08:06.830Z,33.60
2017-12-16T23:10:34.251Z,31.10
2017-12-16T23:13:01.738Z,30.40
2017-12-16T23:15:29.380Z,31.70
2017-12-16T23:17:56.833Z,37.72
2017-12-16T23:20:24.285Z,29.48
2017-12-16T23:22:51.746Z,31.55
2017-12-16T23:25:19.218Z,32.00
2017-12-16T23:27:46.676Z,29.35
2017-12-16T23:30:14.135Z,33.38
2017-12-16T23:32:41.576Z,30.02
2017-12-16T23:35:09.027Z,31.80
2017-12-16T23:37:36.476Z,30.65
2017-12-16T23:40:03.929Z,28.48
2017-12-16T23:42:31.381Z,31.10
2017-12-16T23:44:58.828Z,27.10
2017-12-16T23:47:26.281Z,22.83
2017-12-16T23:49:53.741Z,32.33
2017-12-16T23:52:21.245Z,23.55
2017-12-16T23:54:48.702Z,22.73
2017-12-16T23:57:16.160Z,23.83
2017-12-16T23:59:43.609Z,22.75
